This is the latest recevied weather packets stored in our database for station/object DF7ER-12. If no packets are shown the sender has not sent any weather packets the latest 10 day(s).
| Time | Temp. | Humidity | Pressure | Rain* | Wind** | Luminosity | Snow |
|---|---|---|---|---|---|---|---|
| 1777620699 | 19.44° C | 55% | 1019.3 hPa | - | - | - | - |
| 1777620399 | 19.44° C | 55% | 1019.3 hPa | - | - | - | - |
| 1777620098 | 19.44° C | 54% | 1019.4 hPa | - | - | - | - |
| 1777619798 | 18.89° C | 58% | 1019.3 hPa | - | - | - | - |
| 1777619499 | 20° C | 55% | 1019.4 hPa | - | - | - | - |
| 1777619199 | 19.44° C | 56% | 1019.4 hPa | - | - | - | - |
| 1777618898 | 18.89° C | 58% | 1019.4 hPa | - | - | - | - |
| 1777618598 | 18.33° C | 58% | 1019.3 hPa | - | - | - | - |
| 1777618298 | 18.33° C | 59% | 1019.3 hPa | - | - | - | - |
| 1777617998 | 18.33° C | 58% | 1019.4 hPa | - | - | - | - |
| 1777617699 | 18.33° C | 59% | 1019.4 hPa | - | - | - | - |
| 1777617398 | 18.33° C | 60% | 1019.4 hPa | - | - | - | - |
| 1777617099 | 17.78° C | 60% | 1019.3 hPa | - | - | - | - |
| 1777616798 | 17.78° C | 60% | 1019.3 hPa | - | - | - | - |
| 1777616498 | 17.22° C | 61% | 1019.2 hPa | - | - | - | - |
| 1777616198 | 16.67° C | 61% | 1019.2 hPa | - | - | - | - |
| 1777615898 | 16.11° C | 62% | 1019.3 hPa | - | - | - | - |
| 1777615599 | 16.11° C | 62% | 1019.2 hPa | - | - | - | - |
| 1777615298 | 16.11° C | 64% | 1019.3 hPa | - | - | - | - |
| 1777614998 | 16.11° C | 64% | 1019.3 hPa | - | - | - | - |
| 1777614698 | 15.56° C | 66% | 1019.3 hPa | - | - | - | - |
| 1777614398 | 15° C | 67% | 1019.2 hPa | - | - | - | - |
| 1777614098 | 14.44° C | 68% | 1019.3 hPa | - | - | - | - |
| 1777613798 | 12.78° C | 71% | 1019.2 hPa | - | - | - | - |
| 1777613498 | 12.78° C | 72% | 1019.3 hPa | - | - | - | - |
* Rain since midnight (hover to see other rain measurements)
** Current wind speed in m/s (hover to see current wind gust speed)